createdAt,value
2023-01-27T00:00:39.281Z,18.50
2023-01-27T00:03:06.817Z,14.85
2023-01-27T00:05:34.141Z,12.93
2023-01-27T00:08:01.355Z,8.00
2023-01-27T00:10:28.625Z,9.93
2023-01-27T00:13:14.482Z,14.93
2023-01-27T00:15:41.872Z,13.90
2023-01-27T00:18:09.263Z,7.78
2023-01-27T00:21:15.046Z,12.02
2023-01-27T00:24:01.055Z,16.77
2023-01-27T00:26:28.503Z,16.65
2023-01-27T00:28:56.020Z,12.10
2023-01-27T00:31:41.860Z,11.23
2023-01-27T00:34:09.481Z,9.02
2023-01-27T00:36:38.201Z,11.73
2023-01-27T00:39:09.114Z,8.60
2023-01-27T00:41:36.791Z,13.25
2023-01-27T00:44:05.547Z,6.70
2023-01-27T00:46:33.249Z,13.98
2023-01-27T00:49:01.755Z,12.13
2023-01-27T00:51:29.048Z,10.98
2023-01-27T00:53:56.437Z,15.00
2023-01-27T00:56:23.663Z,9.15
2023-01-27T00:58:50.973Z,13.13
2023-01-27T01:01:18.960Z,8.55
2023-01-27T01:03:46.503Z,10.05
2023-01-27T01:06:15.093Z,9.52
2023-01-27T01:08:42.397Z,9.40
2023-01-27T01:11:11.493Z,13.88
2023-01-27T01:13:38.789Z,9.30
2023-01-27T01:16:07.810Z,8.68
2023-01-27T01:18:35.107Z,6.55
2023-01-27T01:21:02.771Z,9.90
2023-01-27T01:23:30.047Z,6.88
2023-01-27T01:25:58.049Z,8.93
2023-01-27T01:28:25.575Z,11.75
2023-01-27T01:30:53.128Z,13.13
2023-01-27T01:33:20.484Z,7.88
2023-01-27T01:35:47.755Z,8.00
2023-01-27T01:38:15.076Z,15.60
2023-01-27T01:40:45.524Z,9.05
2023-01-27T01:43:14.085Z,11.50
2023-01-27T01:45:44.354Z,8.50
2023-01-27T01:48:34.989Z,27.20
2023-01-27T01:51:21.181Z,9.93
2023-01-27T01:54:14.925Z,8.13
2023-01-27T01:56:45.126Z,16.52
2023-01-27T01:59:15.418Z,11.05
2023-01-27T02:01:42.719Z,12.05
2023-01-27T02:04:12.662Z,11.32
2023-01-27T02:07:09.388Z,10.88
2023-01-27T02:09:37.687Z,10.38
2023-01-27T02:12:05.211Z,6.93
2023-01-27T02:14:32.541Z,13.52
2023-01-27T02:17:00.031Z,10.30
2023-01-27T02:19:36.639Z,12.05
2023-01-27T02:22:04.717Z,11.82
2023-01-27T02:24:38.397Z,14.02
2023-01-27T02:27:05.657Z,11.98
2023-01-27T02:29:32.902Z,14.82
2023-01-27T02:32:00.482Z,14.15
2023-01-27T02:34:30.609Z,19.10
2023-01-27T02:36:59.591Z,14.80
2023-01-27T02:39:34.227Z,16.77
2023-01-27T02:42:01.924Z,18.38
2023-01-27T02:44:29.243Z,17.42
2023-01-27T02:46:56.513Z,19.75
2023-01-27T02:49:23.876Z,18.52
2023-01-27T02:51:51.194Z,17.95
2023-01-27T02:54:18.787Z,16.20
2023-01-27T02:56:46.156Z,14.35
2023-01-27T02:59:16.155Z,16.83
2023-01-27T03:01:43.650Z,19.33
2023-01-27T03:04:11.978Z,17.00
2023-01-27T03:06:39.655Z,19.92
2023-01-27T03:09:07.022Z,19.40
2023-01-27T03:11:52.885Z,20.98
2023-01-27T03:14:20.308Z,16.58
2023-01-27T03:17:07.016Z,15.02
2023-01-27T03:19:34.313Z,20.02
2023-01-27T03:22:01.933Z,21.52
2023-01-27T03:24:31.079Z,19.02
2023-01-27T03:27:02.581Z,18.08
2023-01-27T03:29:56.915Z,16.10
2023-01-27T03:32:25.363Z,18.30
2023-01-27T03:35:12.944Z,21.08
2023-01-27T03:37:59.408Z,21.95
2023-01-27T03:40:46.655Z,18.42
2023-01-27T03:43:33.136Z,21.85
2023-01-27T03:46:20.613Z,19.93
2023-01-27T03:48:51.746Z,24.42
2023-01-27T03:51:19.822Z,20.00
2023-01-27T03:53:47.607Z,19.58
2023-01-27T03:56:15.809Z,21.10
2023-01-27T03:58:43.524Z,23.38
2023-01-27T04:01:16.132Z,19.02
2023-01-27T04:04:02.298Z,23.13
2023-01-27T04:06:50.287Z,19.05
2023-01-27T04:09:22.246Z,15.20
2023-01-27T04:11:55.466Z,15.57
2023-01-27T04:14:23.513Z,14.60
2023-01-27T04:16:51.554Z,13.65
2023-01-27T04:19:18.879Z,11.68
2023-01-27T04:21:46.276Z,11.02
2023-01-27T04:24:17.314Z,10.13
2023-01-27T04:26:45.399Z,12.13
2023-01-27T04:29:15.413Z,11.82
2023-01-27T04:31:42.788Z,11.75
2023-01-27T04:34:11.091Z,10.48
2023-01-27T04:36:38.405Z,9.68
2023-01-27T04:39:05.731Z,12.30
2023-01-27T04:41:33.912Z,8.93
2023-01-27T04:44:01.122Z,11.07
2023-01-27T04:46:28.330Z,8.65
2023-01-27T04:48:55.602Z,8.52
2023-01-27T04:51:22.909Z,9.50
2023-01-27T04:53:50.257Z,7.65
2023-01-27T04:56:25.246Z,7.30
2023-01-27T04:58:52.564Z,7.53
2023-01-27T05:01:19.959Z,8.48
2023-01-27T05:03:47.269Z,7.78
2023-01-27T05:06:14.889Z,7.35
2023-01-27T05:08:42.360Z,7.78
2023-01-27T05:11:09.873Z,7.93
2023-01-27T05:13:37.476Z,7.40
2023-01-27T05:16:09.055Z,5.80
2023-01-27T05:18:36.544Z,6.88
2023-01-27T05:21:04.424Z,6.25
2023-01-27T05:23:37.958Z,5.22
2023-01-27T05:26:09.976Z,9.63
2023-01-27T05:28:37.914Z,12.70
2023-01-27T05:31:10.251Z,5.75
2023-01-27T05:33:37.800Z,6.38
2023-01-27T05:36:06.268Z,6.05
2023-01-27T05:38:33.830Z,6.13
2023-01-27T05:41:02.809Z,6.85
2023-01-27T05:43:30.952Z,6.35
2023-01-27T05:46:08.781Z,5.82
2023-01-27T05:48:36.895Z,5.63
2023-01-27T05:51:04.190Z,8.45
2023-01-27T05:53:31.498Z,8.40
2023-01-27T05:55:59.169Z,4.43
2023-01-27T05:58:26.816Z,6.53
2023-01-27T06:00:54.419Z,4.57
2023-01-27T06:03:22.184Z,5.97
2023-01-27T06:05:50.470Z,5.65
2023-01-27T06:08:17.787Z,5.78
2023-01-27T06:10:45.384Z,5.05
2023-01-27T06:13:13.036Z,6.03
2023-01-27T06:15:44.172Z,5.13
2023-01-27T06:18:11.709Z,6.03
2023-01-27T06:20:39.523Z,5.35
2023-01-27T06:23:07.581Z,4.07
2023-01-27T06:25:39.144Z,4.53
2023-01-27T06:28:08.046Z,4.53
2023-01-27T06:30:37.188Z,4.65
2023-01-27T06:33:04.918Z,4.60
2023-01-27T06:35:32.890Z,3.63
2023-01-27T06:38:01.054Z,5.72
2023-01-27T06:40:29.937Z,4.55
2023-01-27T06:42:57.473Z,3.58
2023-01-27T06:45:24.897Z,6.20
2023-01-27T06:47:56.927Z,8.35
2023-01-27T06:50:24.762Z,4.45
2023-01-27T06:52:52.406Z,5.03
2023-01-27T06:55:19.849Z,9.63
2023-01-27T06:57:50.431Z,5.53
2023-01-27T07:00:17.971Z,7.00
2023-01-27T07:02:45.453Z,6.80
2023-01-27T07:05:13.297Z,6.80
2023-01-27T07:07:40.882Z,6.00
2023-01-27T07:10:08.295Z,3.95
2023-01-27T07:12:37.809Z,3.30
2023-01-27T07:15:06.131Z,3.92
2023-01-27T07:17:33.761Z,4.03
2023-01-27T07:20:01.361Z,6.13
2023-01-27T07:22:28.758Z,3.42
2023-01-27T07:24:56.034Z,7.03
2023-01-27T07:27:24.019Z,2.95
2023-01-27T07:29:51.377Z,5.00
2023-01-27T07:32:18.761Z,3.85
2023-01-27T07:34:46.002Z,5.35
2023-01-27T07:37:13.527Z,3.88
2023-01-27T07:39:40.857Z,4.28
2023-01-27T07:42:09.147Z,3.00
2023-01-27T07:44:37.271Z,4.10
2023-01-27T07:47:05.582Z,4.75
2023-01-27T07:49:32.874Z,5.00
2023-01-27T07:52:00.139Z,5.28
2023-01-27T07:54:27.390Z,6.78
2023-01-27T07:56:54.620Z,3.97
2023-01-27T07:59:21.841Z,4.63
2023-01-27T08:01:49.102Z,7.80
2023-01-27T08:04:17.156Z,3.55
2023-01-27T08:06:44.420Z,6.22
2023-01-27T08:09:11.660Z,5.18
2023-01-27T08:11:38.997Z,4.65
2023-01-27T08:14:06.263Z,5.55
2023-01-27T08:16:33.684Z,4.00
2023-01-27T08:19:01.084Z,3.40
2023-01-27T08:21:32.794Z,4.10
2023-01-27T08:24:00.578Z,15.10
2023-01-27T08:26:28.042Z,4.53
2023-01-27T08:28:55.272Z,3.55
2023-01-27T08:31:22.578Z,5.50
2023-01-27T08:33:53.874Z,3.47
2023-01-27T08:36:22.299Z,4.30
2023-01-27T08:38:49.674Z,3.07
2023-01-27T08:41:19.560Z,4.70
2023-01-27T08:43:47.042Z,4.80
2023-01-27T08:46:14.921Z,3.47
2023-01-27T08:48:42.425Z,8.43
2023-01-27T08:51:10.290Z,3.75
2023-01-27T08:53:37.644Z,3.88
2023-01-27T08:56:06.393Z,7.43
2023-01-27T08:58:34.114Z,3.60
2023-01-27T09:01:02.558Z,3.60
2023-01-27T09:03:30.672Z,5.80
2023-01-27T09:05:57.981Z,5.10
2023-01-27T09:08:25.472Z,5.10
2023-01-27T09:10:52.972Z,5.05
2023-01-27T09:13:22.451Z,5.53
2023-01-27T09:15:51.968Z,6.18
2023-01-27T09:18:19.390Z,4.53
2023-01-27T09:20:46.711Z,5.95
2023-01-27T09:23:14.274Z,5.97
2023-01-27T09:25:41.560Z,5.40
2023-01-27T09:28:16.966Z,6.57
2023-01-27T09:30:46.329Z,3.20
2023-01-27T09:33:17.479Z,3.22
2023-01-27T09:35:52.151Z,7.13
2023-01-27T09:38:21.351Z,5.10
2023-01-27T09:40:58.093Z,4.18
2023-01-27T09:43:32.950Z,4.07
2023-01-27T09:46:19.038Z,3.35
2023-01-27T09:48:54.762Z,7.32
2023-01-27T09:51:34.160Z,3.67
2023-01-27T09:54:09.105Z,2.58
2023-01-27T09:56:48.334Z,5.47
2023-01-27T10:01:46.348Z,2.30
2023-01-27T10:04:22.928Z,2.88
2023-01-27T10:06:56.390Z,3.92
2023-01-27T10:09:36.176Z,6.95
2023-01-27T10:12:10.398Z,3.28
2023-01-27T10:14:48.923Z,2.63
2023-01-27T10:17:24.249Z,4.70
2023-01-27T10:20:00.750Z,2.95
2023-01-27T10:22:46.682Z,3.70
2023-01-27T10:25:23.526Z,1.90
2023-01-27T10:27:56.640Z,2.95
2023-01-27T10:30:34.999Z,2.95
2023-01-27T10:33:11.681Z,2.95
2023-01-27T10:35:59.174Z,2.42
2023-01-27T10:38:27.082Z,2.15
2023-01-27T10:41:13.443Z,2.22
2023-01-27T10:43:59.569Z,2.10
2023-01-27T10:46:36.594Z,2.20
2023-01-27T10:49:27.196Z,2.08
2023-01-27T10:52:05.283Z,3.63
2023-01-27T10:54:41.948Z,2.08
2023-01-27T10:57:18.765Z,1.98
2023-01-27T11:00:13.923Z,2.00
2023-01-27T11:02:47.611Z,1.13
2023-01-27T11:05:21.001Z,2.90
2023-01-27T11:07:51.852Z,2.00
2023-01-27T11:10:20.046Z,1.83
2023-01-27T11:12:49.498Z,1.20
2023-01-27T11:15:16.861Z,4.70
2023-01-27T11:17:49.596Z,2.78
2023-01-27T11:20:19.665Z,2.15
2023-01-27T11:22:56.293Z,2.08
2023-01-27T11:25:26.168Z,4.72
2023-01-27T11:27:53.439Z,1.75
2023-01-27T11:30:23.169Z,1.88
2023-01-27T11:33:00.062Z,1.00
2023-01-27T11:35:27.361Z,2.78
2023-01-27T11:38:00.593Z,2.45
2023-01-27T11:40:30.752Z,3.03
2023-01-27T11:42:58.478Z,2.08
2023-01-27T11:45:26.216Z,3.38
2023-01-27T11:47:56.031Z,2.53
2023-01-27T11:50:27.295Z,4.95
2023-01-27T11:53:01.233Z,2.03
2023-01-27T11:55:31.496Z,2.97
2023-01-27T11:58:06.447Z,3.38
2023-01-27T12:00:38.365Z,1.67
2023-01-27T12:03:13.951Z,3.38
2023-01-27T12:05:48.435Z,3.65
2023-01-27T12:08:35.609Z,7.60
2023-01-27T12:11:17.353Z,1.88
2023-01-27T12:14:01.255Z,3.47
2023-01-27T12:16:41.372Z,3.22
2023-01-27T12:19:20.450Z,2.63
2023-01-27T12:21:50.569Z,2.78
2023-01-27T12:24:39.127Z,5.68
2023-01-27T12:27:07.505Z,1.50
2023-01-27T12:29:40.075Z,3.30
2023-01-27T12:32:14.376Z,2.47
2023-01-27T12:34:45.059Z,3.38
2023-01-27T12:37:20.199Z,3.40
2023-01-27T12:39:51.722Z,4.03
2023-01-27T12:42:38.446Z,2.60
2023-01-27T12:45:31.931Z,4.70
2023-01-27T12:48:05.179Z,1.98
2023-01-27T12:50:35.674Z,4.07
2023-01-27T12:53:15.497Z,9.70
2023-01-27T12:55:44.899Z,3.38
2023-01-27T13:00:46.398Z,2.95
2023-01-27T13:03:13.850Z,2.30
2023-01-27T13:05:42.839Z,2.70
2023-01-27T13:08:16.159Z,2.55
2023-01-27T13:10:54.070Z,2.88
2023-01-27T13:13:31.647Z,4.22
2023-01-27T13:16:05.022Z,3.40
2023-01-27T13:18:38.390Z,4.35
2023-01-27T13:21:14.887Z,4.80
2023-01-27T13:23:42.400Z,5.47
2023-01-27T13:26:09.816Z,2.30
2023-01-27T13:28:55.011Z,1.92
2023-01-27T13:31:22.318Z,4.95
2023-01-27T13:33:52.674Z,3.50
2023-01-27T13:36:30.620Z,4.35
2023-01-27T13:39:06.180Z,5.05
2023-01-27T13:41:37.617Z,6.68
2023-01-27T13:44:09.441Z,2.97
2023-01-27T13:46:39.499Z,10.30
2023-01-27T13:49:16.508Z,13.02
2023-01-27T13:51:43.836Z,13.50
2023-01-27T13:54:12.838Z,16.85
2023-01-27T13:56:40.043Z,8.35
2023-01-27T13:59:33.393Z,5.15
2023-01-27T14:02:23.165Z,4.25
2023-01-27T14:04:56.505Z,4.43
2023-01-27T14:07:31.719Z,3.10
2023-01-27T14:10:08.120Z,4.03
2023-01-27T14:12:44.565Z,3.72
2023-01-27T14:15:20.988Z,2.83
2023-01-27T14:17:57.273Z,3.47
2023-01-27T14:20:32.829Z,2.88
2023-01-27T14:23:24.797Z,2.35
2023-01-27T14:26:10.904Z,2.97
2023-01-27T14:28:38.104Z,3.15
2023-01-27T14:31:17.742Z,2.38
2023-01-27T14:33:54.247Z,2.88
2023-01-27T14:36:27.978Z,3.53
2023-01-27T14:38:55.190Z,2.67
2023-01-27T14:41:22.420Z,2.83
2023-01-27T14:43:49.657Z,5.10
2023-01-27T14:46:20.290Z,3.10
2023-01-27T14:48:59.793Z,4.65
2023-01-27T14:51:36.058Z,5.15
2023-01-27T14:54:06.395Z,3.65
2023-01-27T14:57:05.839Z,5.75
2023-01-27T14:59:41.761Z,4.35
2023-01-27T15:02:14.954Z,3.17
2023-01-27T15:05:02.489Z,6.10
2023-01-27T15:07:32.606Z,3.80
2023-01-27T15:10:21.684Z,3.42
2023-01-27T15:12:52.029Z,3.63
2023-01-27T15:15:38.239Z,5.20
2023-01-27T15:18:17.568Z,5.70
2023-01-27T15:23:34.945Z,4.28
2023-01-27T15:26:06.235Z,5.68
2023-01-27T15:28:35.811Z,4.60
2023-01-27T15:31:15.507Z,5.65
2023-01-27T15:33:46.036Z,4.45
2023-01-27T15:36:19.268Z,5.65
2023-01-27T15:39:05.755Z,4.30
2023-01-27T15:41:33.044Z,4.70
2023-01-27T15:44:05.669Z,4.60
2023-01-27T15:46:34.584Z,5.93
2023-01-27T15:49:04.539Z,3.40
2023-01-27T15:51:35.850Z,4.15
2023-01-27T15:54:03.924Z,4.05
2023-01-27T15:56:46.794Z,5.97
2023-01-27T15:59:16.194Z,8.48
2023-01-27T16:04:10.670Z,5.47
2023-01-27T16:06:45.432Z,5.00
2023-01-27T16:09:23.312Z,4.93
2023-01-27T16:12:04.638Z,4.72
2023-01-27T16:14:39.148Z,6.30
2023-01-27T16:17:09.501Z,4.15
2023-01-27T16:19:42.858Z,3.67
2023-01-27T16:22:14.686Z,4.55
2023-01-27T16:24:48.210Z,3.40
2023-01-27T16:27:15.640Z,3.85
2023-01-27T16:29:46.400Z,5.10
2023-01-27T16:32:17.251Z,4.90
2023-01-27T16:34:52.555Z,5.13
2023-01-27T16:37:26.003Z,3.75
2023-01-27T16:39:59.123Z,3.85
2023-01-27T16:42:37.573Z,4.15
2023-01-27T16:45:11.147Z,3.97
2023-01-27T16:47:44.058Z,4.43
2023-01-27T16:50:31.815Z,4.53
2023-01-27T16:52:59.362Z,4.55
2023-01-27T16:55:26.583Z,5.88
2023-01-27T16:57:55.374Z,5.97
2023-01-27T17:00:24.522Z,6.95
2023-01-27T17:02:52.293Z,3.97
2023-01-27T17:05:20.514Z,6.50
2023-01-27T17:08:06.301Z,6.13
2023-01-27T17:10:35.080Z,4.40
2023-01-27T17:13:02.652Z,5.38
2023-01-27T17:15:31.123Z,7.43
2023-01-27T17:17:58.676Z,8.70
2023-01-27T17:20:32.045Z,5.97
2023-01-27T17:23:00.140Z,6.35
2023-01-27T17:25:27.354Z,5.03
2023-01-27T17:27:55.972Z,6.10
2023-01-27T17:30:27.222Z,7.10
2023-01-27T17:32:56.235Z,6.55
2023-01-27T17:35:23.615Z,10.07
2023-01-27T17:37:51.273Z,4.90
2023-01-27T17:40:20.120Z,6.10
2023-01-27T17:42:48.202Z,6.85
2023-01-27T17:45:34.867Z,6.60
2023-01-27T17:48:02.389Z,8.07
2023-01-27T17:50:33.498Z,7.22
2023-01-27T17:53:00.900Z,6.78
2023-01-27T17:55:31.255Z,7.20
2023-01-27T17:58:03.983Z,5.65
2023-01-27T18:00:37.436Z,8.13
2023-01-27T18:03:07.219Z,8.63
2023-01-27T18:05:34.551Z,6.85
2023-01-27T18:08:03.764Z,7.72
2023-01-27T18:10:30.969Z,7.43
2023-01-27T18:12:58.428Z,7.80
2023-01-27T18:15:37.818Z,7.95
2023-01-27T18:18:08.385Z,9.02
2023-01-27T18:20:36.963Z,8.35
2023-01-27T18:23:07.433Z,7.20
2023-01-27T18:25:34.784Z,7.40
2023-01-27T18:28:02.177Z,6.70
2023-01-27T18:30:29.463Z,6.93
2023-01-27T18:33:06.700Z,8.05
2023-01-27T18:35:34.942Z,9.23
2023-01-27T18:38:03.679Z,8.23
2023-01-27T18:40:35.406Z,8.45
2023-01-27T18:43:04.166Z,7.85
2023-01-27T18:45:31.633Z,8.40
2023-01-27T18:47:59.548Z,8.93
2023-01-27T18:50:27.425Z,10.05
2023-01-27T18:52:54.827Z,10.48
2023-01-27T18:55:26.708Z,11.88
2023-01-27T18:57:55.235Z,9.98
2023-01-27T19:00:24.807Z,6.70
2023-01-27T19:02:53.777Z,9.35
2023-01-27T19:05:21.065Z,9.77
2023-01-27T19:07:49.075Z,11.82
2023-01-27T19:10:18.147Z,10.05
2023-01-27T19:12:45.925Z,10.70
2023-01-27T19:15:14.207Z,11.10
2023-01-27T19:17:42.229Z,8.40
2023-01-27T19:20:19.362Z,11.10
2023-01-27T19:22:48.658Z,10.18
2023-01-27T19:25:16.270Z,9.65
2023-01-27T19:27:45.018Z,9.95
2023-01-27T19:30:38.443Z,12.77
2023-01-27T19:33:16.163Z,11.63
2023-01-27T19:35:44.885Z,9.10
2023-01-27T19:38:13.003Z,12.75
2023-01-27T19:40:40.571Z,11.73
2023-01-27T19:43:07.901Z,10.63
2023-01-27T19:45:35.225Z,11.68
2023-01-27T19:48:02.575Z,13.73
2023-01-27T19:50:30.906Z,12.25
2023-01-27T19:52:59.033Z,11.95
2023-01-27T19:55:26.534Z,12.48
2023-01-27T19:57:53.933Z,10.38
2023-01-27T20:00:26.513Z,13.90
2023-01-27T20:02:53.817Z,10.70
2023-01-27T20:05:21.439Z,11.88
2023-01-27T20:07:49.191Z,11.82
2023-01-27T20:10:18.246Z,11.65
2023-01-27T20:12:53.431Z,11.60
2023-01-27T20:15:23.952Z,11.52
2023-01-27T20:17:55.479Z,11.40
2023-01-27T20:20:23.460Z,10.32
2023-01-27T20:22:50.738Z,10.23
2023-01-27T20:25:21.714Z,10.18
2023-01-27T20:27:50.047Z,11.57
2023-01-27T20:30:18.997Z,16.27
2023-01-27T20:32:46.876Z,12.02
2023-01-27T20:35:15.150Z,9.70
2023-01-27T20:37:43.416Z,10.98
2023-01-27T20:40:15.128Z,13.20
2023-01-27T20:42:42.519Z,12.07
2023-01-27T20:45:10.522Z,12.75
2023-01-27T20:47:37.804Z,13.40
2023-01-27T20:50:06.805Z,10.40
2023-01-27T20:52:37.428Z,10.20
2023-01-27T20:55:05.405Z,13.20
2023-01-27T20:57:34.286Z,16.23
2023-01-27T21:00:01.488Z,9.02
2023-01-27T21:02:29.540Z,11.75
2023-01-27T21:04:57.029Z,13.85
2023-01-27T21:07:24.984Z,14.85
2023-01-27T21:09:53.534Z,12.50
2023-01-27T21:12:21.740Z,9.25
2023-01-27T21:14:49.013Z,12.43
2023-01-27T21:17:17.313Z,15.43
2023-01-27T21:19:44.703Z,11.40
2023-01-27T21:22:12.018Z,14.20
2023-01-27T21:24:39.311Z,13.15
2023-01-27T21:27:06.537Z,14.85
2023-01-27T21:29:33.875Z,16.60
2023-01-27T21:32:01.365Z,13.95
2023-01-27T21:34:28.601Z,16.95
2023-01-27T21:36:55.995Z,13.82
2023-01-27T21:39:23.987Z,13.82
2023-01-27T21:41:54.088Z,14.80
2023-01-27T21:44:41.390Z,15.02
2023-01-27T21:47:09.520Z,16.08
2023-01-27T21:49:57.883Z,15.43
2023-01-27T21:52:26.094Z,13.47
2023-01-27T21:54:53.352Z,14.43
2023-01-27T21:57:20.591Z,15.85
2023-01-27T21:59:47.902Z,12.68
2023-01-27T22:02:15.836Z,12.23
2023-01-27T22:04:46.817Z,14.23
2023-01-27T22:07:15.624Z,15.60
2023-01-27T22:09:43.017Z,13.45
2023-01-27T22:12:13.886Z,13.35
2023-01-27T22:14:41.118Z,14.73
2023-01-27T22:17:09.281Z,14.88
2023-01-27T22:19:39.753Z,13.38
2023-01-27T22:22:12.628Z,14.85
2023-01-27T22:24:39.926Z,13.40
2023-01-27T22:27:07.231Z,15.95
2023-01-27T22:29:34.604Z,15.93
2023-01-27T22:32:01.827Z,15.43
2023-01-27T22:34:29.092Z,14.10
2023-01-27T22:36:56.388Z,14.77
2023-01-27T22:39:23.921Z,13.55
2023-01-27T22:41:51.415Z,15.15
2023-01-27T22:44:18.882Z,14.98
2023-01-27T22:46:48.425Z,13.00
2023-01-27T22:49:15.962Z,13.45
2023-01-27T22:51:43.245Z,12.20
2023-01-27T22:54:10.552Z,14.57
2023-01-27T22:56:39.160Z,13.55
2023-01-27T22:59:09.679Z,12.82
2023-01-27T23:01:37.550Z,13.23
2023-01-27T23:04:05.081Z,15.05
2023-01-27T23:06:34.254Z,12.75
2023-01-27T23:09:01.552Z,12.18
2023-01-27T23:11:28.838Z,12.57
2023-01-27T23:13:56.113Z,13.32
2023-01-27T23:16:23.564Z,13.57
2023-01-27T23:18:51.248Z,13.23
2023-01-27T23:21:18.428Z,14.15
2023-01-27T23:23:45.702Z,11.75
2023-01-27T23:26:14.463Z,15.13
2023-01-27T23:28:41.779Z,12.90
2023-01-27T23:31:10.180Z,12.93
2023-01-27T23:33:38.306Z,9.23
2023-01-27T23:36:07.342Z,12.55
2023-01-27T23:38:35.353Z,14.77
2023-01-27T23:41:06.761Z,13.85
2023-01-27T23:43:33.995Z,14.02
2023-01-27T23:46:01.325Z,16.45
2023-01-27T23:48:28.608Z,13.43
2023-01-27T23:50:55.898Z,13.05
2023-01-27T23:53:23.135Z,16.30
2023-01-27T23:55:57.702Z,14.13
2023-01-27T23:58:25.585Z,12.07
